sensor_id;sensor_type;location;lat;lon;timestamp;temperature;humidity
15343;DHT22;7771;48.478;8.936;2022-09-01T00:00:57;16.40;99.90
15343;DHT22;7771;48.478;8.936;2022-09-01T00:03:24;16.40;99.90
15343;DHT22;7771;48.478;8.936;2022-09-01T00:05:52;16.30;99.90
15343;DHT22;7771;48.478;8.936;2022-09-01T00:08:20;16.30;99.90
15343;DHT22;7771;48.478;8.936;2022-09-01T00:10:46;16.30;99.90
15343;DHT22;7771;48.478;8.936;2022-09-01T00:13:13;16.20;99.90
15343;DHT22;7771;48.478;8.936;2022-09-01T00:15:39;16.20;99.90
15343;DHT22;7771;48.478;8.936;2022-09-01T00:18:06;16.30;99.90
15343;DHT22;7771;48.478;8.936;2022-09-01T00:20:33;16.30;99.90
15343;DHT22;7771;48.478;8.936;2022-09-01T00:23:00;16.30;99.90
15343;DHT22;7771;48.478;8.936;2022-09-01T00:25:27;16.30;99.90
15343;DHT22;7771;48.478;8.936;2022-09-01T00:27:55;16.30;99.90
15343;DHT22;7771;48.478;8.936;2022-09-01T00:30:22;16.40;99.90
15343;DHT22;7771;48.478;8.936;2022-09-01T00:32:49;16.40;99.90
15343;DHT22;7771;48.478;8.936;2022-09-01T00:35:16;16.40;99.90
15343;DHT22;7771;48.478;8.936;2022-09-01T00:37:43;16.40;99.90
15343;DHT22;7771;48.478;8.936;2022-09-01T00:40:11;16.50;99.90
15343;DHT22;7771;48.478;8.936;2022-09-01T00:42:38;16.50;99.90
15343;DHT22;7771;48.478;8.936;2022-09-01T00:45:06;16.50;99.90
15343;DHT22;7771;48.478;8.936;2022-09-01T00:47:32;16.60;99.90
15343;DHT22;7771;48.478;8.936;2022-09-01T00:49:59;16.60;99.90
15343;DHT22;7771;48.478;8.936;2022-09-01T00:52:29;16.60;99.90
15343;DHT22;7771;48.478;8.936;2022-09-01T00:54:55;16.70;99.90
15343;DHT22;7771;48.478;8.936;2022-09-01T00:57:21;16.80;99.90
15343;DHT22;7771;48.478;8.936;2022-09-01T00:59:50;16.70;99.90
15343;DHT22;7771;48.478;8.936;2022-09-01T01:02:15;16.70;99.90
15343;DHT22;7771;48.478;8.936;2022-09-01T01:04:41;16.60;99.90
15343;DHT22;7771;48.478;8.936;2022-09-01T01:07:08;16.60;99.90
15343;DHT22;7771;48.478;8.936;2022-09-01T01:09:37;16.70;99.90
15343;DHT22;7771;48.478;8.936;2022-09-01T01:12:02;16.70;99.90
15343;DHT22;7771;48.478;8.936;2022-09-01T01:14:29;16.70;99.90
15343;DHT22;7771;48.478;8.936;2022-09-01T01:16:56;16.70;99.90
15343;DHT22;7771;48.478;8.936;2022-09-01T01:19:44;16.70;99.90
15343;DHT22;7771;48.478;8.936;2022-09-01T01:22:19;16.70;99.90
15343;DHT22;7771;48.478;8.936;2022-09-01T01:24:48;16.70;99.90
15343;DHT22;7771;48.478;8.936;2022-09-01T01:27:15;16.70;99.90
15343;DHT22;7771;48.478;8.936;2022-09-01T01:29:42;16.70;99.90
15343;DHT22;7771;48.478;8.936;2022-09-01T01:32:08;16.70;99.90
15343;DHT22;7771;48.478;8.936;2022-09-01T01:34:35;16.70;99.90
15343;DHT22;7771;48.478;8.936;2022-09-01T01:37:02;16.70;99.90
15343;DHT22;7771;48.478;8.936;2022-09-01T01:39:29;16.70;99.90
15343;DHT22;7771;48.478;8.936;2022-09-01T01:41:56;16.70;99.90
15343;DHT22;7771;48.478;8.936;2022-09-01T01:44:24;16.70;99.90
15343;DHT22;7771;48.478;8.936;2022-09-01T01:46:50;16.70;99.90
15343;DHT22;7771;48.478;8.936;2022-09-01T01:49:17;16.70;99.90
15343;DHT22;7771;48.478;8.936;2022-09-01T01:51:42;16.70;99.90
15343;DHT22;7771;48.478;8.936;2022-09-01T01:54:10;16.70;99.90
15343;DHT22;7771;48.478;8.936;2022-09-01T01:56:37;16.70;99.90
15343;DHT22;7771;48.478;8.936;2022-09-01T01:59:04;16.70;99.90
15343;DHT22;7771;48.478;8.936;2022-09-01T02:01:30;16.70;99.90
15343;DHT22;7771;48.478;8.936;2022-09-01T02:03:58;16.70;99.90
15343;DHT22;7771;48.478;8.936;2022-09-01T02:06:24;16.80;99.90
15343;DHT22;7771;48.478;8.936;2022-09-01T02:08:51;16.70;99.90
15343;DHT22;7771;48.478;8.936;2022-09-01T02:11:18;16.70;99.90
15343;DHT22;7771;48.478;8.936;2022-09-01T02:13:45;16.60;99.90
15343;DHT22;7771;48.478;8.936;2022-09-01T02:16:12;16.60;99.90
15343;DHT22;7771;48.478;8.936;2022-09-01T02:18:41;16.60;99.90
15343;DHT22;7771;48.478;8.936;2022-09-01T02:21:06;16.50;99.90
15343;DHT22;7771;48.478;8.936;2022-09-01T02:23:33;16.50;99.90
15343;DHT22;7771;48.478;8.936;2022-09-01T02:26:00;16.50;99.90
15343;DHT22;7771;48.478;8.936;2022-09-01T02:28:27;16.50;99.90
15343;DHT22;7771;48.478;8.936;2022-09-01T02:30:53;16.50;99.90
15343;DHT22;7771;48.478;8.936;2022-09-01T02:33:21;16.40;99.90
15343;DHT22;7771;48.478;8.936;2022-09-01T02:35:48;16.40;99.90
15343;DHT22;7771;48.478;8.936;2022-09-01T02:38:14;16.40;99.90
15343;DHT22;7771;48.478;8.936;2022-09-01T02:40:40;16.40;99.90
15343;DHT22;7771;48.478;8.936;2022-09-01T02:43:07;16.30;99.90
15343;DHT22;7771;48.478;8.936;2022-09-01T02:45:34;16.30;99.90
15343;DHT22;7771;48.478;8.936;2022-09-01T02:48:01;16.30;99.90
15343;DHT22;7771;48.478;8.936;2022-09-01T02:50:28;16.20;99.90
15343;DHT22;7771;48.478;8.936;2022-09-01T02:52:55;16.20;99.90
15343;DHT22;7771;48.478;8.936;2022-09-01T02:55:22;16.20;99.90
15343;DHT22;7771;48.478;8.936;2022-09-01T02:57:50;16.20;99.90
15343;DHT22;7771;48.478;8.936;2022-09-01T03:00:16;16.20;99.90
15343;DHT22;7771;48.478;8.936;2022-09-01T03:02:48;16.20;99.90
15343;DHT22;7771;48.478;8.936;2022-09-01T03:05:13;16.20;99.90
15343;DHT22;7771;48.478;8.936;2022-09-01T03:07:40;16.20;99.90
15343;DHT22;7771;48.478;8.936;2022-09-01T03:10:07;16.20;99.90
15343;DHT22;7771;48.478;8.936;2022-09-01T03:12:34;16.30;99.90
15343;DHT22;7771;48.478;8.936;2022-09-01T03:15:02;16.30;99.90
15343;DHT22;7771;48.478;8.936;2022-09-01T03:17:29;16.30;99.90
15343;DHT22;7771;48.478;8.936;2022-09-01T03:19:55;16.30;99.90
15343;DHT22;7771;48.478;8.936;2022-09-01T03:22:22;16.20;99.90
15343;DHT22;7771;48.478;8.936;2022-09-01T03:24:49;16.30;99.90
15343;DHT22;7771;48.478;8.936;2022-09-01T03:27:15;16.30;99.90
15343;DHT22;7771;48.478;8.936;2022-09-01T03:29:42;16.30;99.90
15343;DHT22;7771;48.478;8.936;2022-09-01T03:32:09;16.20;99.90
15343;DHT22;7771;48.478;8.936;2022-09-01T03:34:35;16.20;99.90
15343;DHT22;7771;48.478;8.936;2022-09-01T03:37:06;16.20;99.90
15343;DHT22;7771;48.478;8.936;2022-09-01T03:39:33;16.10;99.90
15343;DHT22;7771;48.478;8.936;2022-09-01T03:41:59;16.10;99.90
15343;DHT22;7771;48.478;8.936;2022-09-01T03:44:26;16.10;99.90
15343;DHT22;7771;48.478;8.936;2022-09-01T03:46:52;16.10;99.90
15343;DHT22;7771;48.478;8.936;2022-09-01T03:49:20;16.10;99.90
15343;DHT22;7771;48.478;8.936;2022-09-01T03:51:47;16.10;99.90
15343;DHT22;7771;48.478;8.936;2022-09-01T03:54:14;16.00;99.90
15343;DHT22;7771;48.478;8.936;2022-09-01T03:56:41;16.00;99.90
15343;DHT22;7771;48.478;8.936;2022-09-01T03:59:08;16.00;99.90
15343;DHT22;7771;48.478;8.936;2022-09-01T04:01:34;16.00;99.90
15343;DHT22;7771;48.478;8.936;2022-09-01T04:04:02;16.00;99.90
15343;DHT22;7771;48.478;8.936;2022-09-01T04:06:28;16.10;99.90
15343;DHT22;7771;48.478;8.936;2022-09-01T04:08:55;16.10;99.90
15343;DHT22;7771;48.478;8.936;2022-09-01T04:11:22;16.00;99.90
15343;DHT22;7771;48.478;8.936;2022-09-01T04:13:50;16.10;99.90
15343;DHT22;7771;48.478;8.936;2022-09-01T04:16:23;16.10;99.90
15343;DHT22;7771;48.478;8.936;2022-09-01T04:18:52;16.10;99.90
15343;DHT22;7771;48.478;8.936;2022-09-01T04:21:20;16.20;99.90
15343;DHT22;7771;48.478;8.936;2022-09-01T04:23:46;16.10;99.90
15343;DHT22;7771;48.478;8.936;2022-09-01T04:26:14;16.10;99.90
15343;DHT22;7771;48.478;8.936;2022-09-01T04:28:44;16.10;99.90
15343;DHT22;7771;48.478;8.936;2022-09-01T04:31:12;16.00;99.90
15343;DHT22;7771;48.478;8.936;2022-09-01T04:33:38;16.10;99.90
15343;DHT22;7771;48.478;8.936;2022-09-01T04:36:06;16.00;99.90
15343;DHT22;7771;48.478;8.936;2022-09-01T04:38:32;16.00;99.90
15343;DHT22;7771;48.478;8.936;2022-09-01T04:41:02;16.10;99.90
15343;DHT22;7771;48.478;8.936;2022-09-01T04:43:26;16.10;99.90
15343;DHT22;7771;48.478;8.936;2022-09-01T04:45:53;16.00;99.90
15343;DHT22;7771;48.478;8.936;2022-09-01T04:48:20;16.10;99.90
15343;DHT22;7771;48.478;8.936;2022-09-01T04:50:48;16.10;99.90
15343;DHT22;7771;48.478;8.936;2022-09-01T04:53:15;16.00;99.90
15343;DHT22;7771;48.478;8.936;2022-09-01T04:55:42;16.00;99.90
15343;DHT22;7771;48.478;8.936;2022-09-01T04:58:09;16.00;99.90
15343;DHT22;7771;48.478;8.936;2022-09-01T05:00:35;16.00;99.90
15343;DHT22;7771;48.478;8.936;2022-09-01T05:03:02;16.00;99.90
15343;DHT22;7771;48.478;8.936;2022-09-01T05:05:36;16.10;99.90
15343;DHT22;7771;48.478;8.936;2022-09-01T05:08:02;16.00;99.90
15343;DHT22;7771;48.478;8.936;2022-09-01T05:10:30;16.00;99.90
15343;DHT22;7771;48.478;8.936;2022-09-01T05:12:56;16.00;99.90
15343;DHT22;7771;48.478;8.936;2022-09-01T05:15:23;16.00;99.90
15343;DHT22;7771;48.478;8.936;2022-09-01T05:17:50;16.10;99.90
15343;DHT22;7771;48.478;8.936;2022-09-01T05:20:16;16.10;99.90
15343;DHT22;7771;48.478;8.936;2022-09-01T05:22:43;16.10;99.90
15343;DHT22;7771;48.478;8.936;2022-09-01T05:25:09;16.20;99.90
15343;DHT22;7771;48.478;8.936;2022-09-01T05:27:38;16.20;99.90
15343;DHT22;7771;48.478;8.936;2022-09-01T05:30:04;16.20;99.90
15343;DHT22;7771;48.478;8.936;2022-09-01T05:32:30;16.20;99.90
15343;DHT22;7771;48.478;8.936;2022-09-01T05:34:57;16.20;99.90
15343;DHT22;7771;48.478;8.936;2022-09-01T05:37:24;16.20;99.90
15343;DHT22;7771;48.478;8.936;2022-09-01T05:39:51;16.20;99.90
15343;DHT22;7771;48.478;8.936;2022-09-01T05:42:18;16.30;99.90
15343;DHT22;7771;48.478;8.936;2022-09-01T05:44:48;16.30;99.90
15343;DHT22;7771;48.478;8.936;2022-09-01T05:47:15;16.30;99.90
15343;DHT22;7771;48.478;8.936;2022-09-01T05:49:42;16.30;99.90
15343;DHT22;7771;48.478;8.936;2022-09-01T05:52:08;16.40;99.90
15343;DHT22;7771;48.478;8.936;2022-09-01T05:54:35;16.40;99.90
15343;DHT22;7771;48.478;8.936;2022-09-01T05:57:02;16.50;99.90
15343;DHT22;7771;48.478;8.936;2022-09-01T05:59:29;16.60;99.90
15343;DHT22;7771;48.478;8.936;2022-09-01T06:01:56;16.60;99.90
15343;DHT22;7771;48.478;8.936;2022-09-01T06:04:23;16.60;99.90
15343;DHT22;7771;48.478;8.936;2022-09-01T06:06:51;16.60;99.90
15343;DHT22;7771;48.478;8.936;2022-09-01T06:09:17;16.60;99.90
15343;DHT22;7771;48.478;8.936;2022-09-01T06:11:44;16.70;99.90
15343;DHT22;7771;48.478;8.936;2022-09-01T06:14:10;16.70;99.90
15343;DHT22;7771;48.478;8.936;2022-09-01T06:16:37;16.80;99.90
15343;DHT22;7771;48.478;8.936;2022-09-01T06:19:04;16.80;99.90
15343;DHT22;7771;48.478;8.936;2022-09-01T06:21:31;16.90;99.90
15343;DHT22;7771;48.478;8.936;2022-09-01T06:23:58;16.90;99.90
15343;DHT22;7771;48.478;8.936;2022-09-01T06:26:27;17.00;99.90
15343;DHT22;7771;48.478;8.936;2022-09-01T06:28:55;17.00;99.90
15343;DHT22;7771;48.478;8.936;2022-09-01T06:31:21;17.10;99.90
15343;DHT22;7771;48.478;8.936;2022-09-01T06:33:50;17.10;99.90
15343;DHT22;7771;48.478;8.936;2022-09-01T06:36:17;17.10;99.90
15343;DHT22;7771;48.478;8.936;2022-09-01T06:38:43;17.10;99.90
15343;DHT22;7771;48.478;8.936;2022-09-01T06:41:11;17.10;99.90
15343;DHT22;7771;48.478;8.936;2022-09-01T06:43:41;17.10;99.90
15343;DHT22;7771;48.478;8.936;2022-09-01T06:46:08;17.10;99.90
15343;DHT22;7771;48.478;8.936;2022-09-01T06:48:35;17.20;99.90
15343;DHT22;7771;48.478;8.936;2022-09-01T06:51:02;17.20;99.90
15343;DHT22;7771;48.478;8.936;2022-09-01T06:53:29;17.20;99.90
15343;DHT22;7771;48.478;8.936;2022-09-01T06:55:56;17.20;99.90
15343;DHT22;7771;48.478;8.936;2022-09-01T06:58:23;17.20;99.90
15343;DHT22;7771;48.478;8.936;2022-09-01T07:00:50;17.20;99.90
15343;DHT22;7771;48.478;8.936;2022-09-01T07:03:16;17.30;99.90
15343;DHT22;7771;48.478;8.936;2022-09-01T07:05:44;17.20;99.90
15343;DHT22;7771;48.478;8.936;2022-09-01T07:08:11;17.30;99.90
15343;DHT22;7771;48.478;8.936;2022-09-01T07:10:43;17.30;99.90
15343;DHT22;7771;48.478;8.936;2022-09-01T07:13:07;17.40;99.90
15343;DHT22;7771;48.478;8.936;2022-09-01T07:15:37;17.50;99.90
15343;DHT22;7771;48.478;8.936;2022-09-01T07:18:03;17.50;99.90
15343;DHT22;7771;48.478;8.936;2022-09-01T07:20:29;17.60;99.90
15343;DHT22;7771;48.478;8.936;2022-09-01T07:22:56;17.70;99.90
15343;DHT22;7771;48.478;8.936;2022-09-01T07:25:23;17.80;99.90
15343;DHT22;7771;48.478;8.936;2022-09-01T07:27:50;17.80;99.90
15343;DHT22;7771;48.478;8.936;2022-09-01T07:30:17;17.80;99.90
15343;DHT22;7771;48.478;8.936;2022-09-01T07:32:43;17.90;99.90
15343;DHT22;7771;48.478;8.936;2022-09-01T07:35:11;17.90;99.90
15343;DHT22;7771;48.478;8.936;2022-09-01T07:37:37;18.00;99.90
15343;DHT22;7771;48.478;8.936;2022-09-01T07:40:07;18.20;99.90
15343;DHT22;7771;48.478;8.936;2022-09-01T07:42:33;18.40;99.90
15343;DHT22;7771;48.478;8.936;2022-09-01T07:44:59;18.60;99.90
15343;DHT22;7771;48.478;8.936;2022-09-01T07:47:26;19.00;99.90
15343;DHT22;7771;48.478;8.936;2022-09-01T07:49:53;19.10;99.90
15343;DHT22;7771;48.478;8.936;2022-09-01T07:52:20;20.50;99.90
15343;DHT22;7771;48.478;8.936;2022-09-01T07:54:47;21.00;99.90
15343;DHT22;7771;48.478;8.936;2022-09-01T07:57:15;21.30;99.90
15343;DHT22;7771;48.478;8.936;2022-09-01T07:59:41;21.30;99.90
15343;DHT22;7771;48.478;8.936;2022-09-01T08:02:08;21.50;99.90
15343;DHT22;7771;48.478;8.936;2022-09-01T08:04:34;21.40;99.90
15343;DHT22;7771;48.478;8.936;2022-09-01T08:07:01;21.50;99.90
15343;DHT22;7771;48.478;8.936;2022-09-01T08:09:28;21.50;99.90
15343;DHT22;7771;48.478;8.936;2022-09-01T08:11:55;21.50;99.90
15343;DHT22;7771;48.478;8.936;2022-09-01T08:14:22;21.50;99.90
15343;DHT22;7771;48.478;8.936;2022-09-01T08:16:48;21.60;99.90
15343;DHT22;7771;48.478;8.936;2022-09-01T08:19:15;21.80;99.90
15343;DHT22;7771;48.478;8.936;2022-09-01T08:21:41;21.90;99.90
15343;DHT22;7771;48.478;8.936;2022-09-01T08:24:08;22.10;99.90
15343;DHT22;7771;48.478;8.936;2022-09-01T08:26:35;22.30;99.90
15343;DHT22;7771;48.478;8.936;2022-09-01T08:29:02;22.40;99.90
15343;DHT22;7771;48.478;8.936;2022-09-01T08:31:29;22.40;99.90
15343;DHT22;7771;48.478;8.936;2022-09-01T08:33:56;22.90;99.90
15343;DHT22;7771;48.478;8.936;2022-09-01T08:36:23;22.90;99.90
15343;DHT22;7771;48.478;8.936;2022-09-01T08:38:50;23.10;99.90
15343;DHT22;7771;48.478;8.936;2022-09-01T08:41:40;23.40;99.90
15343;DHT22;7771;48.478;8.936;2022-09-01T08:44:31;23.50;99.90
15343;DHT22;7771;48.478;8.936;2022-09-01T08:46:59;23.60;99.90
15343;DHT22;7771;48.478;8.936;2022-09-01T08:49:24;23.80;99.90
15343;DHT22;7771;48.478;8.936;2022-09-01T08:51:53;23.80;99.90
15343;DHT22;7771;48.478;8.936;2022-09-01T08:54:23;24.10;99.90
15343;DHT22;7771;48.478;8.936;2022-09-01T08:56:53;24.10;99.90
15343;DHT22;7771;48.478;8.936;2022-09-01T08:59:19;24.50;99.90
15343;DHT22;7771;48.478;8.936;2022-09-01T09:02:20;24.50;99.90
15343;DHT22;7771;48.478;8.936;2022-09-01T09:04:51;24.80;99.90
15343;DHT22;7771;48.478;8.936;2022-09-01T09:07:41;24.90;99.90
15343;DHT22;7771;48.478;8.936;2022-09-01T09:10:06;25.00;99.90
15343;DHT22;7771;48.478;8.936;2022-09-01T09:12:35;25.10;99.90
15343;DHT22;7771;48.478;8.936;2022-09-01T09:15:08;25.20;99.90
15343;DHT22;7771;48.478;8.936;2022-09-01T09:17:34;25.20;99.90
15343;DHT22;7771;48.478;8.936;2022-09-01T09:20:00;25.00;99.90
15343;DHT22;7771;48.478;8.936;2022-09-01T09:22:27;25.20;99.90
15343;DHT22;7771;48.478;8.936;2022-09-01T09:25:05;25.20;99.90
15343;DHT22;7771;48.478;8.936;2022-09-01T09:27:34;25.40;99.90
15343;DHT22;7771;48.478;8.936;2022-09-01T09:30:01;25.30;99.90
15343;DHT22;7771;48.478;8.936;2022-09-01T09:35:17;25.10;99.90
15343;DHT22;7771;48.478;8.936;2022-09-01T09:37:44;24.90;99.90
15343;DHT22;7771;48.478;8.936;2022-09-01T09:40:14;24.70;99.90
15343;DHT22;7771;48.478;8.936;2022-09-01T09:42:57;24.70;99.90
15343;DHT22;7771;48.478;8.936;2022-09-01T09:45:20;24.60;99.90
15343;DHT22;7771;48.478;8.936;2022-09-01T09:47:42;24.50;99.90
15343;DHT22;7771;48.478;8.936;2022-09-01T09:50:17;24.40;99.90
15343;DHT22;7771;48.478;8.936;2022-09-01T09:52:40;24.40;99.90
15343;DHT22;7771;48.478;8.936;2022-09-01T09:57:39;24.50;99.90
15343;DHT22;7771;48.478;8.936;2022-09-01T10:00:39;24.70;99.90
15343;DHT22;7771;48.478;8.936;2022-09-01T10:02:52;24.60;99.90
15343;DHT22;7771;48.478;8.936;2022-09-01T10:05:25;24.40;99.90
15343;DHT22;7771;48.478;8.936;2022-09-01T10:07:49;24.40;99.90
15343;DHT22;7771;48.478;8.936;2022-09-01T10:10:25;24.50;99.90
15343;DHT22;7771;48.478;8.936;2022-09-01T10:12:52;24.50;99.90
15343;DHT22;7771;48.478;8.936;2022-09-01T10:15:19;24.50;99.90
15343;DHT22;7771;48.478;8.936;2022-09-01T10:17:46;24.50;99.90
15343;DHT22;7771;48.478;8.936;2022-09-01T10:20:16;24.50;99.90
15343;DHT22;7771;48.478;8.936;2022-09-01T10:22:40;24.60;99.90
15343;DHT22;7771;48.478;8.936;2022-09-01T10:25:08;24.60;99.90
15343;DHT22;7771;48.478;8.936;2022-09-01T10:27:35;24.60;99.90
15343;DHT22;7771;48.478;8.936;2022-09-01T10:30:07;24.60;99.90
15343;DHT22;7771;48.478;8.936;2022-09-01T10:32:36;24.60;99.90
15343;DHT22;7771;48.478;8.936;2022-09-01T10:34:59;24.60;99.90
15343;DHT22;7771;48.478;8.936;2022-09-01T10:37:26;24.70;99.90
15343;DHT22;7771;48.478;8.936;2022-09-01T10:42:31;24.90;99.90
15343;DHT22;7771;48.478;8.936;2022-09-01T10:44:58;25.00;99.90
15343;DHT22;7771;48.478;8.936;2022-09-01T10:47:25;25.10;99.90
15343;DHT22;7771;48.478;8.936;2022-09-01T10:50:02;29.30;99.90
15343;DHT22;7771;48.478;8.936;2022-09-01T10:52:56;25.20;99.90
15343;DHT22;7771;48.478;8.936;2022-09-01T10:55:38;25.20;99.90
15343;DHT22;7771;48.478;8.936;2022-09-01T10:58:14;25.40;99.90
15343;DHT22;7771;48.478;8.936;2022-09-01T11:00:43;25.50;98.90
15343;DHT22;7771;48.478;8.936;2022-09-01T11:03:32;25.80;98.20
15343;DHT22;7771;48.478;8.936;2022-09-01T11:06:00;25.70;98.10
15343;DHT22;7771;48.478;8.936;2022-09-01T11:08:46;25.70;98.20
15343;DHT22;7771;48.478;8.936;2022-09-01T11:11:27;25.70;97.90
15343;DHT22;7771;48.478;8.936;2022-09-01T11:13:51;25.70;97.80
15343;DHT22;7771;48.478;8.936;2022-09-01T11:16:30;25.70;97.80
15343;DHT22;7771;48.478;8.936;2022-09-01T11:18:55;25.60;97.60
15343;DHT22;7771;48.478;8.936;2022-09-01T11:21:23;25.60;97.30
15343;DHT22;7771;48.478;8.936;2022-09-01T11:23:50;25.40;97.30
15343;DHT22;7771;48.478;8.936;2022-09-01T11:28:55;25.30;96.70
15343;DHT22;7771;48.478;8.936;2022-09-01T11:31:31;25.30;97.20
15343;DHT22;7771;48.478;8.936;2022-09-01T11:34:04;25.30;97.30
15343;DHT22;7771;48.478;8.936;2022-09-01T11:36:32;25.20;96.90
15343;DHT22;7771;48.478;8.936;2022-09-01T11:39:03;25.20;97.40
15343;DHT22;7771;48.478;8.936;2022-09-01T11:41:25;25.20;96.80
15343;DHT22;7771;48.478;8.936;2022-09-01T11:43:52;25.20;96.80
15343;DHT22;7771;48.478;8.936;2022-09-01T11:46:21;25.20;97.10
15343;DHT22;7771;48.478;8.936;2022-09-01T11:48:47;25.60;96.80
15343;DHT22;7771;48.478;8.936;2022-09-01T11:51:14;25.80;96.50
15343;DHT22;7771;48.478;8.936;2022-09-01T11:53:42;25.80;96.50
15343;DHT22;7771;48.478;8.936;2022-09-01T11:56:13;26.00;96.00
15343;DHT22;7771;48.478;8.936;2022-09-01T11:58:38;25.90;96.00
15343;DHT22;7771;48.478;8.936;2022-09-01T12:01:12;26.00;95.70
15343;DHT22;7771;48.478;8.936;2022-09-01T12:03:38;26.20;95.80
15343;DHT22;7771;48.478;8.936;2022-09-01T12:06:06;26.30;95.10
15343;DHT22;7771;48.478;8.936;2022-09-01T12:08:34;26.50;94.80
15343;DHT22;7771;48.478;8.936;2022-09-01T12:11:20;26.40;95.00
15343;DHT22;7771;48.478;8.936;2022-09-01T12:13:54;26.40;95.20
15343;DHT22;7771;48.478;8.936;2022-09-01T12:16:20;26.10;94.70
15343;DHT22;7771;48.478;8.936;2022-09-01T12:18:47;26.00;94.70
15343;DHT22;7771;48.478;8.936;2022-09-01T12:21:24;26.00;95.00
15343;DHT22;7771;48.478;8.936;2022-09-01T12:23:49;26.00;93.90
15343;DHT22;7771;48.478;8.936;2022-09-01T12:26:18;26.10;94.10
15343;DHT22;7771;48.478;8.936;2022-09-01T12:28:43;26.10;94.40
15343;DHT22;7771;48.478;8.936;2022-09-01T12:31:13;26.20;93.80
15343;DHT22;7771;48.478;8.936;2022-09-01T12:33:41;26.10;93.40
15343;DHT22;7771;48.478;8.936;2022-09-01T12:36:20;26.00;93.30
15343;DHT22;7771;48.478;8.936;2022-09-01T12:38:46;26.00;93.50
15343;DHT22;7771;48.478;8.936;2022-09-01T12:43:51;26.10;92.40
15343;DHT22;7771;48.478;8.936;2022-09-01T12:49:14;26.10;92.40
15343;DHT22;7771;48.478;8.936;2022-09-01T12:51:24;26.20;92.80
15343;DHT22;7771;48.478;8.936;2022-09-01T12:53:52;26.20;92.10
15343;DHT22;7771;48.478;8.936;2022-09-01T12:56:19;26.20;92.40
15343;DHT22;7771;48.478;8.936;2022-09-01T12:58:45;26.30;91.50
15343;DHT22;7771;48.478;8.936;2022-09-01T13:01:15;26.20;91.60
15343;DHT22;7771;48.478;8.936;2022-09-01T13:03:37;26.10;91.90
15343;DHT22;7771;48.478;8.936;2022-09-01T13:06:03;26.00;91.80
15343;DHT22;7771;48.478;8.936;2022-09-01T13:08:31;26.30;91.80
15343;DHT22;7771;48.478;8.936;2022-09-01T13:11:03;26.40;91.20
15343;DHT22;7771;48.478;8.936;2022-09-01T13:13:29;26.40;91.40
15343;DHT22;7771;48.478;8.936;2022-09-01T13:15:57;26.40;91.40
15343;DHT22;7771;48.478;8.936;2022-09-01T13:18:24;26.60;91.50
15343;DHT22;7771;48.478;8.936;2022-09-01T13:20:51;26.70;91.40
15343;DHT22;7771;48.478;8.936;2022-09-01T13:23:18;26.70;90.80
15343;DHT22;7771;48.478;8.936;2022-09-01T13:25:45;26.70;90.50
15343;DHT22;7771;48.478;8.936;2022-09-01T13:28:12;26.60;90.10
15343;DHT22;7771;48.478;8.936;2022-09-01T13:33:11;26.50;90.50
15343;DHT22;7771;48.478;8.936;2022-09-01T13:35:38;26.30;91.00
15343;DHT22;7771;48.478;8.936;2022-09-01T13:38:04;26.30;91.30
15343;DHT22;7771;48.478;8.936;2022-09-01T13:40:31;26.40;91.00
15343;DHT22;7771;48.478;8.936;2022-09-01T13:42:58;26.50;91.20
15343;DHT22;7771;48.478;8.936;2022-09-01T13:45:25;26.50;91.40
15343;DHT22;7771;48.478;8.936;2022-09-01T13:47:51;26.60;91.40
15343;DHT22;7771;48.478;8.936;2022-09-01T13:50:20;26.90;91.20
15343;DHT22;7771;48.478;8.936;2022-09-01T13:52:46;27.00;90.80
15343;DHT22;7771;48.478;8.936;2022-09-01T13:55:13;27.10;90.50
15343;DHT22;7771;48.478;8.936;2022-09-01T13:57:38;27.10;90.80
15343;DHT22;7771;48.478;8.936;2022-09-01T14:00:07;27.20;90.60
15343;DHT22;7771;48.478;8.936;2022-09-01T14:02:32;27.30;90.60
15343;DHT22;7771;48.478;8.936;2022-09-01T14:04:58;27.30;90.90
15343;DHT22;7771;48.478;8.936;2022-09-01T14:07:26;27.20;90.90
15343;DHT22;7771;48.478;8.936;2022-09-01T14:09:53;27.00;90.80
15343;DHT22;7771;48.478;8.936;2022-09-01T14:12:21;26.70;91.20
15343;DHT22;7771;48.478;8.936;2022-09-01T14:14:48;26.50;91.60
15343;DHT22;7771;48.478;8.936;2022-09-01T14:17:15;26.20;91.90
15343;DHT22;7771;48.478;8.936;2022-09-01T14:19:47;25.90;92.20
15343;DHT22;7771;48.478;8.936;2022-09-01T14:22:10;25.70;92.40
15343;DHT22;7771;48.478;8.936;2022-09-01T14:24:37;25.50;92.80
15343;DHT22;7771;48.478;8.936;2022-09-01T14:27:05;25.30;93.00
15343;DHT22;7771;48.478;8.936;2022-09-01T14:29:31;25.30;92.70
15343;DHT22;7771;48.478;8.936;2022-09-01T14:31:59;25.30;93.00
15343;DHT22;7771;48.478;8.936;2022-09-01T14:34:25;25.30;92.50
15343;DHT22;7771;48.478;8.936;2022-09-01T14:36:52;25.30;92.30
15343;DHT22;7771;48.478;8.936;2022-09-01T14:39:19;25.30;92.20
15343;DHT22;7771;48.478;8.936;2022-09-01T14:41:45;25.30;92.30
15343;DHT22;7771;48.478;8.936;2022-09-01T14:44:12;25.30;92.50
15343;DHT22;7771;48.478;8.936;2022-09-01T14:46:39;25.40;92.10
15343;DHT22;7771;48.478;8.936;2022-09-01T14:49:06;25.40;92.00
15343;DHT22;7771;48.478;8.936;2022-09-01T14:51:33;25.40;92.20
15343;DHT22;7771;48.478;8.936;2022-09-01T14:54:00;25.50;92.70
15343;DHT22;7771;48.478;8.936;2022-09-01T14:56:26;25.60;92.70
15343;DHT22;7771;48.478;8.936;2022-09-01T14:58:53;25.60;93.00
15343;DHT22;7771;48.478;8.936;2022-09-01T15:01:20;25.50;93.00
15343;DHT22;7771;48.478;8.936;2022-09-01T15:03:48;25.50;93.10
15343;DHT22;7771;48.478;8.936;2022-09-01T15:06:15;25.50;93.20
15343;DHT22;7771;48.478;8.936;2022-09-01T15:08:42;25.50;93.00
15343;DHT22;7771;48.478;8.936;2022-09-01T15:11:10;25.50;92.90
15343;DHT22;7771;48.478;8.936;2022-09-01T15:13:37;25.40;93.00
15343;DHT22;7771;48.478;8.936;2022-09-01T15:16:04;25.40;92.70
15343;DHT22;7771;48.478;8.936;2022-09-01T15:18:30;25.30;92.80
15343;DHT22;7771;48.478;8.936;2022-09-01T15:20:57;25.30;92.60
15343;DHT22;7771;48.478;8.936;2022-09-01T15:23:24;25.30;92.80
15343;DHT22;7771;48.478;8.936;2022-09-01T15:25:51;25.20;92.60
15343;DHT22;7771;48.478;8.936;2022-09-01T15:28:17;25.10;92.90
15343;DHT22;7771;48.478;8.936;2022-09-01T15:30:44;25.10;92.80
15343;DHT22;7771;48.478;8.936;2022-09-01T15:33:12;25.00;92.80
15343;DHT22;7771;48.478;8.936;2022-09-01T15:35:39;25.10;92.90
15343;DHT22;7771;48.478;8.936;2022-09-01T15:38:06;25.10;93.10
15343;DHT22;7771;48.478;8.936;2022-09-01T15:40:33;25.00;93.40
15343;DHT22;7771;48.478;8.936;2022-09-01T15:43:00;25.00;93.40
15343;DHT22;7771;48.478;8.936;2022-09-01T15:45:28;24.90;93.40
15343;DHT22;7771;48.478;8.936;2022-09-01T15:47:54;24.80;93.70
15343;DHT22;7771;48.478;8.936;2022-09-01T15:50:22;24.80;93.50
15343;DHT22;7771;48.478;8.936;2022-09-01T15:52:51;24.70;93.70
15343;DHT22;7771;48.478;8.936;2022-09-01T15:55:17;24.60;93.70
15343;DHT22;7771;48.478;8.936;2022-09-01T15:57:42;24.50;94.00
15343;DHT22;7771;48.478;8.936;2022-09-01T16:00:10;24.40;94.20
15343;DHT22;7771;48.478;8.936;2022-09-01T16:02:37;24.40;94.40
15343;DHT22;7771;48.478;8.936;2022-09-01T16:05:04;24.30;94.70
15343;DHT22;7771;48.478;8.936;2022-09-01T16:07:30;24.30;95.10